createdAt,value
2022-09-26T00:01:21.485Z,102100.16
2022-09-26T00:03:50.643Z,102109.22
2022-09-26T00:06:18.511Z,102089.91
2022-09-26T00:08:46.699Z,102063.41
2022-09-26T00:11:17.477Z,101977.25
2022-09-26T00:13:44.380Z,101922.81
2022-09-26T00:16:12.451Z,101960.56
2022-09-26T00:18:40.006Z,101890.25
2022-09-26T00:21:13.824Z,101923.59
2022-09-26T00:23:41.331Z,101878.34
2022-09-26T00:26:08.992Z,101888.19
2022-09-26T00:28:35.766Z,101813.75
2022-09-26T00:31:23.763Z,101862.09
2022-09-26T00:33:50.517Z,101834.06
2022-09-26T00:36:17.594Z,101821.34
2022-09-26T00:38:44.748Z,101821.72
2022-09-26T00:41:11.864Z,101790.91
2022-09-26T00:43:40.034Z,101793.94
2022-09-26T00:46:30.003Z,101723.09
2022-09-26T00:49:18.365Z,101782.56
2022-09-26T00:51:54.870Z,101702.25
2022-09-26T00:54:22.118Z,101670.50
2022-09-26T00:56:53.206Z,101714.97
2022-09-26T00:59:25.226Z,101695.06
2022-09-26T01:01:54.452Z,101680.25
2022-09-26T01:04:22.249Z,101653.47
2022-09-26T01:06:48.790Z,101589.34
2022-09-26T01:09:15.983Z,101578.19
2022-09-26T01:11:43.396Z,101580.66
2022-09-26T01:14:12.286Z,101567.88
2022-09-26T01:16:41.540Z,101493.66
2022-09-26T01:19:25.146Z,101488.41
2022-09-26T01:22:37.433Z,101525.03
2022-09-26T01:25:06.422Z,101511.72
2022-09-26T01:28:07.187Z,101487.00
2022-09-26T01:30:52.752Z,101487.81
2022-09-26T01:33:22.180Z,101468.50
2022-09-26T01:36:03.654Z,101457.19
2022-09-26T01:38:45.232Z,101453.19
2022-09-26T01:41:27.938Z,101398.75
2022-09-26T01:44:09.048Z,101368.75
2022-09-26T01:46:50.668Z,101419.84
2022-09-26T01:49:22.981Z,101388.25
2022-09-26T01:52:08.228Z,101370.53
2022-09-26T01:54:45.480Z,101360.28
2022-09-26T01:57:21.065Z,101352.84
2022-09-26T01:59:53.301Z,101347.22
2022-09-26T02:02:24.630Z,101322.03
2022-09-26T02:04:56.511Z,101297.28
2022-09-26T02:07:36.398Z,101279.16
2022-09-26T02:10:27.419Z,101299.72
2022-09-26T02:12:59.739Z,101295.09
2022-09-26T02:15:27.497Z,101264.50
2022-09-26T02:18:01.128Z,101282.03
2022-09-26T02:20:32.598Z,101288.09
2022-09-26T02:23:01.218Z,101283.59
2022-09-26T02:25:28.237Z,101251.97
2022-09-26T02:27:54.673Z,101271.13
2022-09-26T02:30:21.211Z,101246.91
2022-09-26T02:32:48.601Z,101284.19
2022-09-26T02:35:16.365Z,101269.31
2022-09-26T02:37:42.753Z,101261.81
2022-09-26T02:40:09.158Z,101262.44
2022-09-26T02:42:54.632Z,101255.59
2022-09-26T02:45:44.292Z,101260.84
2022-09-26T02:48:56.058Z,101234.88
2022-09-26T02:51:49.072Z,101241.56
2022-09-26T02:54:53.097Z,101224.25
2022-09-26T02:57:43.809Z,101217.63
2022-09-26T03:00:25.505Z,101184.22
2022-09-26T03:03:17.700Z,101195.31
2022-09-26T03:05:48.205Z,101143.59
2022-09-26T03:08:22.811Z,101171.59
2022-09-26T03:10:49.958Z,101150.28
2022-09-26T03:13:17.224Z,101150.28
2022-09-26T03:15:48.629Z,101132.59
2022-09-26T03:18:20.520Z,101117.09
2022-09-26T03:20:47.509Z,101070.44
2022-09-26T03:23:14.011Z,101064.63
2022-09-26T03:25:40.424Z,101091.78
2022-09-26T03:28:06.854Z,101034.88
2022-09-26T03:30:33.507Z,101043.50
2022-09-26T03:32:59.913Z,101040.50
2022-09-26T03:35:26.351Z,101094.38
2022-09-26T03:37:52.734Z,101059.78
2022-09-26T03:40:19.171Z,101074.88
2022-09-26T03:42:45.580Z,101043.09
2022-09-26T03:45:12.256Z,101087.72
2022-09-26T03:47:38.598Z,101072.44
2022-09-26T03:50:08.311Z,101079.88
2022-09-26T03:52:34.691Z,101081.88
2022-09-26T03:55:01.053Z,101067.00
2022-09-26T03:57:27.523Z,101064.22
2022-09-26T03:59:53.893Z,101012.13
2022-09-26T04:02:20.310Z,101051.34
2022-09-26T04:04:46.718Z,101058.59
2022-09-26T04:07:13.156Z,101044.53
2022-09-26T04:09:39.555Z,101034.69
2022-09-26T04:12:05.987Z,101033.66
2022-09-26T04:14:32.385Z,100973.78
2022-09-26T04:16:58.798Z,101015.97
2022-09-26T04:19:25.221Z,101008.75
2022-09-26T04:21:51.614Z,100943.84
2022-09-26T04:24:18.122Z,100949.25
2022-09-26T04:26:44.689Z,101005.13
2022-09-26T04:29:11.741Z,100971.97
2022-09-26T04:31:38.239Z,100983.81
2022-09-26T04:34:05.252Z,100948.88
2022-09-26T04:36:32.127Z,100988.47
2022-09-26T04:38:59.442Z,100976.81
2022-09-26T04:41:27.195Z,100951.28
2022-09-26T04:43:54.792Z,100959.13
2022-09-26T04:46:28.244Z,100920.56
2022-09-26T04:48:58.335Z,100952.69
2022-09-26T04:51:26.159Z,100948.66
2022-09-26T04:53:52.623Z,100961.13
2022-09-26T04:56:20.722Z,100965.75
2022-09-26T04:58:47.488Z,100971.75
2022-09-26T05:01:16.071Z,100977.34
2022-09-26T05:03:43.322Z,100958.03
2022-09-26T05:06:11.606Z,100988.81
2022-09-26T05:08:39.419Z,101001.03
2022-09-26T05:11:06.591Z,100968.66
2022-09-26T05:13:33.510Z,101010.13
2022-09-26T05:16:01.032Z,100997.44
2022-09-26T05:18:27.864Z,101014.31
2022-09-26T05:20:55.383Z,100968.03
2022-09-26T05:23:24.345Z,101024.53
2022-09-26T05:25:50.710Z,101014.38
2022-09-26T05:28:17.178Z,100966.13
2022-09-26T05:30:43.594Z,101078.88
2022-09-26T05:33:10.037Z,101079.31
2022-09-26T05:35:36.391Z,101092.00
2022-09-26T05:38:04.020Z,101084.34
2022-09-26T05:40:31.299Z,101043.88
2022-09-26T05:43:02.123Z,101085.91
2022-09-26T05:45:28.637Z,101087.13
2022-09-26T05:47:55.017Z,101050.50
2022-09-26T05:50:21.420Z,101088.41
2022-09-26T05:52:47.800Z,101049.97
2022-09-26T05:55:14.292Z,101021.84
2022-09-26T05:57:50.311Z,100996.53
2022-09-26T06:00:16.826Z,101052.50
2022-09-26T06:02:43.288Z,101009.69
2022-09-26T06:05:09.849Z,100983.75
2022-09-26T06:07:36.228Z,100994.47
2022-09-26T06:10:02.810Z,100970.78
2022-09-26T06:12:29.192Z,100935.00
2022-09-26T06:14:55.627Z,100958.94
2022-09-26T06:17:22.073Z,100838.78
2022-09-26T06:19:48.545Z,100911.91
2022-09-26T06:22:14.975Z,100917.91
2022-09-26T06:24:41.341Z,100885.94
2022-09-26T06:27:07.740Z,100905.44
2022-09-26T06:29:34.117Z,100842.00
2022-09-26T06:32:00.759Z,100885.13
2022-09-26T06:34:27.245Z,100851.44
2022-09-26T06:36:53.639Z,100874.88
2022-09-26T06:39:20.058Z,100867.03
2022-09-26T06:41:46.463Z,100819.66
2022-09-26T06:44:12.864Z,100799.00
2022-09-26T06:46:39.319Z,100793.00
2022-09-26T06:49:05.867Z,100786.38
2022-09-26T06:51:32.275Z,100779.13
2022-09-26T06:53:58.834Z,100838.50
2022-09-26T06:56:25.241Z,100833.28
2022-09-26T06:58:51.606Z,100799.97
2022-09-26T07:01:18.069Z,100769.09
2022-09-26T07:03:45.945Z,100813.38
2022-09-26T07:06:12.621Z,100796.72
2022-09-26T07:09:00.918Z,100805.13
2022-09-26T07:11:38.236Z,100766.63
2022-09-26T07:14:11.807Z,100783.28
2022-09-26T07:16:38.274Z,100756.00
2022-09-26T07:19:04.712Z,100751.56
2022-09-26T07:21:31.104Z,100796.25
2022-09-26T07:23:57.483Z,100762.56
2022-09-26T07:26:24.040Z,100735.84
2022-09-26T07:28:54.532Z,100786.97
2022-09-26T07:31:21.527Z,100757.06
2022-09-26T07:33:48.033Z,100744.16
2022-09-26T07:36:14.565Z,100770.16
2022-09-26T07:38:40.973Z,100771.34
2022-09-26T07:41:07.358Z,100711.75
2022-09-26T07:44:19.373Z,100759.88
2022-09-26T07:46:20.253Z,100757.41
2022-09-26T07:48:46.717Z,100747.59
2022-09-26T07:51:13.142Z,100714.56
2022-09-26T07:53:39.592Z,100755.63
2022-09-26T07:56:06.105Z,100766.81
2022-09-26T07:58:40.411Z,100704.13
2022-09-26T08:01:09.251Z,100769.50
2022-09-26T08:03:35.682Z,100724.81
2022-09-26T08:06:02.582Z,100759.09
2022-09-26T08:08:29.112Z,100776.66
2022-09-26T08:10:59.036Z,100802.19
2022-09-26T08:13:29.991Z,100793.38
2022-09-26T08:16:03.120Z,100811.41
2022-09-26T08:18:29.972Z,100807.25
2022-09-26T08:20:56.378Z,100755.09
2022-09-26T08:23:22.772Z,100820.50
2022-09-26T08:25:49.156Z,100809.00
2022-09-26T08:28:15.630Z,100748.75
2022-09-26T08:30:42.268Z,100808.81
2022-09-26T08:33:10.966Z,100800.81
2022-09-26T08:35:37.381Z,100772.22
2022-09-26T08:38:05.466Z,100830.38
2022-09-26T08:40:38.554Z,100825.53
2022-09-26T08:43:21.497Z,100863.34
2022-09-26T08:46:02.249Z,100875.09
2022-09-26T08:49:03.533Z,100958.09
2022-09-26T08:51:34.387Z,101012.97
2022-09-26T08:54:12.773Z,101053.56
2022-09-26T08:56:43.981Z,101094.78
2022-09-26T08:59:27.961Z,101141.03
2022-09-26T09:01:59.341Z,101207.53
2022-09-26T09:04:53.633Z,101255.59
2022-09-26T09:07:24.530Z,101492.44
2022-09-26T09:09:54.406Z,101622.88
2022-09-26T09:12:34.258Z,101593.50
2022-09-26T09:15:26.083Z,101470.53
2022-09-26T09:18:02.056Z,101482.56
2022-09-26T09:20:41.829Z,101484.22
2022-09-26T09:23:24.904Z,101447.34
2022-09-26T09:29:18.959Z,101618.72
2022-09-26T09:31:47.123Z,101692.69
2022-09-26T09:34:24.973Z,101687.28
2022-09-26T09:36:55.353Z,101773.22
2022-09-26T09:39:36.719Z,101862.31
2022-09-26T09:42:12.922Z,101941.38
2022-09-26T09:44:47.341Z,102007.00
2022-09-26T09:47:18.768Z,102132.75
2022-09-26T09:49:48.179Z,102216.63
2022-09-26T09:52:20.348Z,102227.88
2022-09-26T09:54:58.959Z,102397.31
2022-09-26T09:57:43.967Z,102438.03
2022-09-26T10:00:20.848Z,102519.91
2022-09-26T10:03:14.938Z,102765.25
2022-09-26T10:05:44.678Z,102851.66
2022-09-26T10:08:18.397Z,102827.69
2022-09-26T10:10:53.639Z,102798.81
2022-09-26T10:13:22.283Z,102892.88
2022-09-26T10:15:56.678Z,102965.56
2022-09-26T10:18:25.159Z,103114.03
2022-09-26T10:21:01.087Z,103154.06
2022-09-26T10:23:34.423Z,103232.88
2022-09-26T10:26:06.917Z,103359.19
2022-09-26T10:28:45.003Z,103500.38
2022-09-26T10:31:21.191Z,103723.25
2022-09-26T10:33:52.764Z,103843.97
2022-09-26T10:36:21.442Z,103906.03
2022-09-26T10:39:12.457Z,103980.59
2022-09-26T10:41:43.151Z,104046.13
2022-09-26T10:44:27.610Z,104306.16
2022-09-26T10:46:57.994Z,104456.41
2022-09-26T10:49:31.249Z,104514.44
2022-09-26T10:52:06.476Z,104656.13
2022-09-26T10:54:38.111Z,104615.00
2022-09-26T10:57:04.758Z,104557.00
2022-09-26T10:59:32.687Z,104483.25
2022-09-26T11:02:00.557Z,104440.34
2022-09-26T11:04:29.827Z,104451.88
2022-09-26T11:06:56.312Z,104443.94
2022-09-26T11:09:22.958Z,104433.56
2022-09-26T11:11:51.253Z,104367.38
2022-09-26T11:14:28.645Z,104353.72
2022-09-26T11:16:56.641Z,104269.69
2022-09-26T11:19:45.776Z,104241.75
2022-09-26T11:22:22.645Z,104280.16
2022-09-26T11:25:02.248Z,104199.19
2022-09-26T11:27:42.704Z,104186.13
2022-09-26T11:30:22.892Z,104083.31
2022-09-26T11:32:54.385Z,104047.41
2022-09-26T11:35:32.997Z,104083.81
2022-09-26T11:38:05.159Z,104057.22
2022-09-26T11:40:47.414Z,104041.13
2022-09-26T11:43:38.418Z,104040.09
2022-09-26T11:46:26.856Z,104063.97
2022-09-26T11:49:21.110Z,104000.41
2022-09-26T11:52:19.790Z,104008.91
2022-09-26T11:55:01.502Z,104000.28
2022-09-26T11:58:03.413Z,104051.59
2022-09-26T12:00:42.686Z,104097.78
2022-09-26T12:03:49.895Z,104148.84
2022-09-26T12:06:48.028Z,104131.88
2022-09-26T12:09:36.017Z,104140.88
2022-09-26T12:12:17.636Z,104163.94
2022-09-26T12:14:56.187Z,104217.75
2022-09-26T12:18:06.930Z,104235.75
2022-09-26T12:20:38.011Z,104284.97
2022-09-26T12:23:10.562Z,104244.59
2022-09-26T12:25:54.758Z,104369.75
2022-09-26T12:28:54.686Z,104511.47
2022-09-26T12:31:59.864Z,104729.13
2022-09-26T12:34:26.209Z,104762.66
2022-09-26T12:37:09.836Z,104879.03
2022-09-26T12:39:58.110Z,104993.38
2022-09-26T12:43:04.748Z,105050.44
2022-09-26T12:45:40.224Z,105099.00
2022-09-26T12:48:33.172Z,105086.75
2022-09-26T12:51:21.356Z,105125.25
2022-09-26T12:53:57.027Z,105181.81
2022-09-26T12:56:52.054Z,105169.88
2022-09-26T12:59:18.457Z,105216.06
2022-09-26T13:02:08.001Z,105237.31
2022-09-26T13:04:40.517Z,105278.03
2022-09-26T13:07:25.097Z,105341.59
2022-09-26T13:10:18.306Z,105423.06
2022-09-26T13:12:50.775Z,105343.13
2022-09-26T13:15:29.685Z,105427.09
2022-09-26T13:18:25.853Z,105496.09
2022-09-26T13:20:57.478Z,105438.28
2022-09-26T13:23:50.423Z,105512.72
2022-09-26T13:26:20.370Z,105614.69
2022-09-26T13:29:13.325Z,105580.69
2022-09-26T13:31:45.537Z,105595.84
2022-09-26T13:34:23.698Z,105488.25
2022-09-26T13:36:51.137Z,105479.81
2022-09-26T13:39:35.770Z,105392.34
2022-09-26T13:43:02.816Z,105359.19
2022-09-26T13:45:53.794Z,105277.63
2022-09-26T13:48:35.737Z,105177.94
2022-09-26T13:51:21.496Z,105101.25
2022-09-26T13:54:16.742Z,104919.56
2022-09-26T13:56:45.972Z,104954.72
2022-09-26T13:59:12.291Z,104792.66
2022-09-26T14:01:59.744Z,104566.78
2022-09-26T14:04:34.322Z,104371.03
2022-09-26T14:07:06.434Z,104347.03
2022-09-26T14:09:55.485Z,104257.03
2022-09-26T14:12:34.037Z,104183.91
2022-09-26T14:15:16.851Z,104260.63
2022-09-26T14:17:43.218Z,104203.41
2022-09-26T14:20:33.229Z,104154.09
2022-09-26T14:23:01.191Z,104159.84
2022-09-26T14:25:45.881Z,104171.06
2022-09-26T14:28:35.310Z,104153.88
2022-09-26T14:31:33.653Z,104082.56
2022-09-26T14:34:16.035Z,104043.25
2022-09-26T14:36:44.373Z,104103.56
2022-09-26T14:39:25.999Z,104021.59
2022-09-26T14:41:53.383Z,103958.59
2022-09-26T14:44:21.546Z,103980.69
2022-09-26T14:46:54.310Z,103927.88
2022-09-26T14:49:26.611Z,103941.81
2022-09-26T14:52:00.563Z,103951.06
2022-09-26T14:54:36.908Z,103978.09
2022-09-26T14:57:06.099Z,103998.34
2022-09-26T14:59:35.570Z,104002.50
2022-09-26T15:02:20.417Z,103930.47
2022-09-26T15:04:52.917Z,103935.16
2022-09-26T15:07:25.079Z,103921.84
2022-09-26T15:09:58.672Z,103988.28
2022-09-26T15:12:41.327Z,103960.69
2022-09-26T15:15:36.529Z,103984.97
2022-09-26T15:18:12.599Z,103928.03
2022-09-26T15:20:44.258Z,103883.63
2022-09-26T15:23:19.026Z,103900.84
2022-09-26T15:25:45.820Z,103885.38
2022-09-26T15:28:12.345Z,103853.25
2022-09-26T15:30:38.891Z,103754.03
2022-09-26T15:33:05.585Z,103813.13
2022-09-26T15:35:32.332Z,103852.81
2022-09-26T15:38:09.232Z,103767.00
2022-09-26T15:40:35.918Z,103814.38
2022-09-26T15:43:08.286Z,103818.00
2022-09-26T15:45:46.802Z,103825.84
2022-09-26T15:48:19.024Z,103765.78
2022-09-26T15:51:14.643Z,103775.03
2022-09-26T15:53:48.484Z,103803.38
2022-09-26T15:56:22.723Z,103802.25
2022-09-26T15:58:57.995Z,103811.91
2022-09-26T16:01:28.133Z,103806.97
2022-09-26T16:03:59.056Z,103749.91
2022-09-26T16:06:34.782Z,103826.81
2022-09-26T16:09:21.333Z,103871.47
2022-09-26T16:11:57.935Z,103873.66
2022-09-26T16:14:33.460Z,103880.25
2022-09-26T16:17:13.568Z,103785.19
2022-09-26T16:19:47.582Z,103730.44
2022-09-26T16:22:42.608Z,103746.22
2022-09-26T16:25:17.849Z,103669.72
2022-09-26T16:27:50.804Z,103638.28
2022-09-26T16:30:23.108Z,103598.97
2022-09-26T16:32:50.835Z,103458.50
2022-09-26T16:35:18.501Z,103386.25
2022-09-26T16:38:06.451Z,103349.56
2022-09-26T16:40:35.206Z,103334.94
2022-09-26T16:43:28.918Z,103278.97
2022-09-26T16:46:08.397Z,103206.94
2022-09-26T16:48:50.082Z,103076.44
2022-09-26T16:51:23.526Z,103084.63
2022-09-26T16:53:58.462Z,102970.59
2022-09-26T16:56:26.025Z,103029.50
2022-09-26T16:59:02.592Z,102930.03
2022-09-26T17:01:29.502Z,102880.66
2022-09-26T17:03:56.622Z,102834.22
2022-09-26T17:06:23.043Z,102792.84
2022-09-26T17:08:49.459Z,102676.53
2022-09-26T17:11:16.383Z,102703.25
2022-09-26T17:13:42.818Z,102682.03
2022-09-26T17:16:10.099Z,102603.56
2022-09-26T17:18:36.734Z,102589.00
2022-09-26T17:21:03.241Z,102497.19
2022-09-26T17:23:40.628Z,102525.13
2022-09-26T17:26:11.948Z,102539.28
2022-09-26T17:28:42.224Z,102528.69
2022-09-26T17:31:14.613Z,102526.22
2022-09-26T17:33:42.192Z,102446.56
2022-09-26T17:36:23.316Z,102496.69
2022-09-26T17:38:50.179Z,102494.56
2022-09-26T17:41:16.600Z,102458.47
2022-09-26T17:43:43.018Z,102494.22
2022-09-26T17:46:15.808Z,102493.41
2022-09-26T17:48:43.679Z,102441.34
2022-09-26T17:51:10.360Z,102506.19
2022-09-26T17:53:40.219Z,102460.28
2022-09-26T17:56:06.656Z,102510.09
2022-09-26T17:58:34.415Z,102531.31
2022-09-26T18:01:01.402Z,102476.09
2022-09-26T18:03:30.819Z,102539.50
2022-09-26T18:05:57.477Z,102498.31
2022-09-26T18:08:27.811Z,102518.38
2022-09-26T18:10:57.566Z,102528.84
2022-09-26T18:13:34.121Z,102610.25
2022-09-26T18:16:01.216Z,102601.22
2022-09-26T18:18:29.828Z,102607.59
2022-09-26T18:20:56.791Z,102537.44
2022-09-26T18:23:29.978Z,102550.69
2022-09-26T18:25:58.390Z,102557.41
2022-09-26T18:28:25.058Z,102619.66
2022-09-26T18:30:57.775Z,102529.16
2022-09-26T18:33:25.144Z,102587.34
2022-09-26T18:35:51.566Z,102588.31
2022-09-26T18:38:18.000Z,102567.75
2022-09-26T18:40:51.289Z,102571.34
2022-09-26T18:43:21.199Z,102515.28
2022-09-26T18:45:48.262Z,102588.31
2022-09-26T18:48:29.486Z,102598.44
2022-09-26T18:50:56.123Z,102622.63
2022-09-26T18:53:24.044Z,102637.16
2022-09-26T18:55:50.468Z,102647.78
2022-09-26T18:58:18.534Z,102537.38
2022-09-26T19:00:45.095Z,102668.91
2022-09-26T19:03:11.577Z,102651.03
2022-09-26T19:05:38.080Z,102654.97
2022-09-26T19:08:04.884Z,102596.44
2022-09-26T19:10:31.293Z,102687.47
2022-09-26T19:12:57.741Z,102650.03
2022-09-26T19:15:24.205Z,102680.44
2022-09-26T19:17:50.659Z,102719.66
2022-09-26T19:20:17.046Z,102734.38
2022-09-26T19:22:43.534Z,102757.72
2022-09-26T19:25:10.250Z,102797.22
2022-09-26T19:27:47.419Z,102821.81
2022-09-26T19:30:17.219Z,102915.19
2022-09-26T19:32:47.544Z,102931.84
2022-09-26T19:35:43.927Z,103053.09
2022-09-26T19:38:20.099Z,103094.84
2022-09-26T19:40:49.079Z,103156.97
2022-09-26T19:43:15.989Z,103197.72
2022-09-26T19:45:42.492Z,103240.84
2022-09-26T19:48:15.791Z,103309.00
2022-09-26T19:50:44.377Z,103326.59
2022-09-26T19:53:15.522Z,103269.44
2022-09-26T19:55:42.183Z,103260.38
2022-09-26T19:58:14.529Z,103206.72
2022-09-26T20:00:42.283Z,103316.44
2022-09-26T20:03:14.801Z,103341.16
2022-09-26T20:05:41.282Z,103356.72
2022-09-26T20:08:13.400Z,103387.34
2022-09-26T20:10:39.819Z,103446.44
2022-09-26T20:13:06.252Z,103470.91
2022-09-26T20:15:32.822Z,103486.84
2022-09-26T20:17:59.327Z,103580.50
2022-09-26T20:20:26.583Z,103555.97
2022-09-26T20:22:55.254Z,103490.16
2022-09-26T20:25:27.289Z,103534.16
2022-09-26T20:27:54.494Z,103518.91
2022-09-26T20:30:21.213Z,103611.22
2022-09-26T20:32:47.599Z,103484.94
2022-09-26T20:35:14.583Z,103562.84
2022-09-26T20:37:41.923Z,103491.41
2022-09-26T20:40:21.070Z,103463.53
2022-09-26T20:42:52.765Z,103527.09
2022-09-26T20:45:26.948Z,103518.97
2022-09-26T20:47:53.412Z,103558.19
2022-09-26T20:50:19.900Z,103552.94
2022-09-26T20:52:46.533Z,103476.03
2022-09-26T20:55:17.738Z,103570.81
2022-09-26T20:57:44.399Z,103611.22
2022-09-26T21:00:20.206Z,103500.75
2022-09-26T21:02:50.217Z,103619.13
2022-09-26T21:05:19.934Z,103661.03
2022-09-26T21:07:46.639Z,103629.13
2022-09-26T21:10:22.640Z,103651.28
2022-09-26T21:12:49.611Z,103614.44
2022-09-26T21:15:16.630Z,103638.56
2022-09-26T21:17:43.847Z,103758.44
2022-09-26T21:20:16.074Z,103632.94
2022-09-26T21:22:42.953Z,103659.34
2022-09-26T21:25:18.826Z,104598.81
2022-09-26T21:27:52.223Z,104531.56
2022-09-26T21:30:20.352Z,104532.50
2022-09-26T21:32:50.394Z,104421.19
2022-09-26T21:35:19.109Z,104387.38
2022-09-26T21:37:54.461Z,104188.84
2022-09-26T21:40:23.811Z,104103.19
2022-09-26T21:42:54.578Z,104109.25
2022-09-26T21:45:26.451Z,104116.81
2022-09-26T21:47:57.660Z,104021.44
2022-09-26T21:50:27.959Z,103967.81
2022-09-26T21:53:03.097Z,103844.31
2022-09-26T21:55:34.590Z,103933.28
2022-09-26T21:58:05.379Z,103783.16
2022-09-26T22:00:31.844Z,103850.13
2022-09-26T22:02:59.498Z,103805.41
2022-09-26T22:05:26.080Z,103807.84
2022-09-26T22:07:52.497Z,103824.13
2022-09-26T22:10:18.917Z,103666.00
2022-09-26T22:12:45.349Z,103669.50
2022-09-26T22:15:11.731Z,103698.91
2022-09-26T22:17:38.203Z,103717.31
2022-09-26T22:20:05.197Z,103756.66
2022-09-26T22:22:31.589Z,103711.03
2022-09-26T22:24:58.057Z,103804.47
2022-09-26T22:27:24.426Z,103767.31
2022-09-26T22:29:50.826Z,103801.59
2022-09-26T22:32:17.285Z,103826.78
2022-09-26T22:34:43.718Z,103839.59
2022-09-26T22:37:10.115Z,103840.88
2022-09-26T22:39:36.504Z,103823.84
2022-09-26T22:42:02.937Z,103823.59
2022-09-26T22:44:29.338Z,103842.00
2022-09-26T22:46:55.677Z,103749.56
2022-09-26T22:49:22.057Z,103732.19
2022-09-26T22:51:48.452Z,103805.34
2022-09-26T22:54:15.104Z,103701.28
2022-09-26T22:56:41.768Z,103802.03
2022-09-26T22:59:09.888Z,103752.25
2022-09-26T23:01:36.461Z,103844.53
2022-09-26T23:04:03.311Z,103911.00
2022-09-26T23:06:30.984Z,103859.06
2022-09-26T23:08:57.647Z,103830.38
2022-09-26T23:11:24.100Z,103825.84
2022-09-26T23:13:52.007Z,103830.69
2022-09-26T23:16:21.377Z,103784.19
2022-09-26T23:18:48.716Z,103806.41
2022-09-26T23:21:20.960Z,103722.03
2022-09-26T23:23:50.744Z,103870.38
2022-09-26T23:26:28.841Z,103727.88
2022-09-26T23:28:56.960Z,103755.50
2022-09-26T23:31:25.741Z,103707.50
2022-09-26T23:33:52.995Z,103689.09
2022-09-26T23:36:19.984Z,103674.41
2022-09-26T23:38:46.743Z,103593.06
2022-09-26T23:41:14.002Z,103625.97
2022-09-26T23:43:40.526Z,103546.31
2022-09-26T23:46:08.109Z,103631.47
2022-09-26T23:48:35.158Z,103569.56
2022-09-26T23:51:01.559Z,103708.72
2022-09-26T23:53:28.095Z,103626.56
2022-09-26T23:56:02.668Z,103589.47
2022-09-26T23:58:29.093Z,103537.25
